createdAt,value
2023-04-02T00:00:29.406Z,984.94
2023-04-02T00:01:29.396Z,984.94
2023-04-02T00:02:29.534Z,984.95
2023-04-02T00:03:29.435Z,985.03
2023-04-02T00:04:29.381Z,985.05
2023-04-02T00:05:29.381Z,985.00
2023-04-02T00:06:29.374Z,985.13
2023-04-02T00:07:29.367Z,985.15
2023-04-02T00:08:29.369Z,985.12
2023-04-02T00:09:29.344Z,985.11
2023-04-02T00:10:29.362Z,985.17
2023-04-02T00:11:29.345Z,985.16
2023-04-02T00:12:29.334Z,985.18
2023-04-02T00:13:29.316Z,985.17
2023-04-02T00:14:29.320Z,985.23
2023-04-02T00:15:29.309Z,985.21
2023-04-02T00:16:29.441Z,985.25
2023-04-02T00:17:29.305Z,985.24
2023-04-02T00:18:29.291Z,985.31
2023-04-02T00:19:29.281Z,985.30
2023-04-02T00:20:29.292Z,985.28
2023-04-02T00:21:29.272Z,985.35
2023-04-02T00:22:29.320Z,985.40
2023-04-02T00:23:29.252Z,985.32
2023-04-02T00:24:29.246Z,985.46
2023-04-02T00:25:29.241Z,985.46
2023-04-02T00:26:29.238Z,985.49
2023-04-02T00:27:29.243Z,985.49
2023-04-02T00:28:29.232Z,985.53
2023-04-02T00:29:29.208Z,985.58
2023-04-02T00:30:29.208Z,985.57
2023-04-02T00:31:29.223Z,985.58
2023-04-02T00:32:29.257Z,985.64
2023-04-02T00:33:29.179Z,985.63
2023-04-02T00:34:29.219Z,985.57
2023-04-02T00:35:29.219Z,985.58
2023-04-02T00:36:29.168Z,985.63
2023-04-02T00:37:29.167Z,985.69
2023-04-02T00:38:29.151Z,985.70
2023-04-02T00:39:29.158Z,985.70
2023-04-02T00:40:29.168Z,985.73
2023-04-02T00:41:29.144Z,985.71
2023-04-02T00:42:29.158Z,985.74
2023-04-02T00:43:29.124Z,985.73
2023-04-02T00:44:29.131Z,985.81
2023-04-02T00:45:29.172Z,985.79
2023-04-02T00:46:29.163Z,985.74
2023-04-02T00:47:29.161Z,985.81
2023-04-02T00:48:29.095Z,985.81
2023-04-02T00:49:29.075Z,985.83
2023-04-02T00:50:29.072Z,985.91
2023-04-02T00:51:29.064Z,985.94
2023-04-02T00:52:29.104Z,985.95
2023-04-02T00:53:29.065Z,985.98
2023-04-02T00:54:29.050Z,985.97
2023-04-02T00:55:29.035Z,985.98
2023-04-02T00:56:29.034Z,986.02
2023-04-02T00:57:29.118Z,985.99
2023-04-02T00:58:29.029Z,986.10
2023-04-02T00:59:29.019Z,985.97
2023-04-02T01:00:29.015Z,986.03
2023-04-02T01:01:29.040Z,986.08
2023-04-02T01:02:29.094Z,986.07
2023-04-02T01:03:29.318Z,986.12
2023-04-02T01:04:28.984Z,986.13
2023-04-02T01:05:28.971Z,986.17
2023-04-02T01:06:28.970Z,986.16
2023-04-02T01:07:28.969Z,986.14
2023-04-02T01:08:28.973Z,986.17
2023-04-02T01:09:28.947Z,986.14
2023-04-02T01:10:28.936Z,986.25
2023-04-02T01:11:28.942Z,986.25
2023-04-02T01:12:28.924Z,986.25
2023-04-02T01:13:28.912Z,986.21
2023-04-02T01:14:28.921Z,986.21
2023-04-02T01:15:29.045Z,986.30
2023-04-02T01:16:28.996Z,986.35
2023-04-02T01:17:28.935Z,986.30
2023-04-02T01:18:28.880Z,986.38
2023-04-02T01:19:28.883Z,986.38
2023-04-02T01:20:28.880Z,986.40
2023-04-02T01:21:28.875Z,986.41
2023-04-02T01:22:28.851Z,986.39
2023-04-02T01:23:28.856Z,986.43
2023-04-02T01:24:28.841Z,986.43
2023-04-02T01:25:28.867Z,986.46
2023-04-02T01:26:28.836Z,986.49
2023-04-02T01:27:28.809Z,986.53
2023-04-02T01:28:28.815Z,986.50
2023-04-02T01:29:28.802Z,986.53
2023-04-02T01:30:29.819Z,986.48
2023-04-02T01:31:28.845Z,986.57
2023-04-02T01:32:28.815Z,986.60
2023-04-02T01:33:28.791Z,986.62
2023-04-02T01:34:28.952Z,986.59
2023-04-02T01:35:28.766Z,986.64
2023-04-02T01:36:28.797Z,986.59
2023-04-02T01:37:28.755Z,986.69
2023-04-02T01:38:28.750Z,986.78
2023-04-02T01:39:28.759Z,986.83
2023-04-02T01:40:28.729Z,986.80
2023-04-02T01:41:28.749Z,986.78
2023-04-02T01:42:29.734Z,986.86
2023-04-02T01:43:28.709Z,986.85
2023-04-02T01:44:28.706Z,986.88
2023-04-02T01:45:28.697Z,986.88
2023-04-02T01:46:28.746Z,986.91
2023-04-02T01:47:28.736Z,986.92
2023-04-02T01:48:28.679Z,987.03
2023-04-02T01:49:28.663Z,986.99
2023-04-02T01:50:28.657Z,987.01
2023-04-02T01:51:28.708Z,986.98
2023-04-02T01:52:28.665Z,986.99
2023-04-02T01:53:28.639Z,987.07
2023-04-02T01:54:28.642Z,987.04
2023-04-02T01:55:28.638Z,987.08
2023-04-02T01:56:28.629Z,987.07
2023-04-02T01:57:28.689Z,987.14
2023-04-02T01:58:28.628Z,987.20
2023-04-02T01:59:28.596Z,987.23
2023-04-02T02:00:28.666Z,987.27
2023-04-02T02:01:28.595Z,987.28
2023-04-02T02:02:28.680Z,987.34
2023-04-02T02:03:28.607Z,987.33
2023-04-02T02:04:28.575Z,987.34
2023-04-02T02:05:28.572Z,987.40
2023-04-02T02:06:28.555Z,987.40
2023-04-02T02:07:28.571Z,987.38
2023-04-02T02:08:28.562Z,987.42
2023-04-02T02:09:28.583Z,987.46
2023-04-02T02:10:28.539Z,987.48
2023-04-02T02:11:28.527Z,987.52
2023-04-02T02:12:28.526Z,987.52
2023-04-02T02:13:28.520Z,987.53
2023-04-02T02:14:28.533Z,987.53
2023-04-02T02:15:28.513Z,987.59
2023-04-02T02:16:28.549Z,987.58
2023-04-02T02:17:28.514Z,987.65
2023-04-02T02:18:28.483Z,987.59
2023-04-02T02:19:28.492Z,987.70
2023-04-02T02:20:28.468Z,987.64
2023-04-02T02:21:28.468Z,987.62
2023-04-02T02:22:28.479Z,987.76
2023-04-02T02:23:28.464Z,987.68
2023-04-02T02:24:28.476Z,987.69
2023-04-02T02:25:28.460Z,987.74
2023-04-02T02:26:28.433Z,987.75
2023-04-02T02:27:28.429Z,987.78
2023-04-02T02:28:28.421Z,987.82
2023-04-02T02:29:28.447Z,987.80
2023-04-02T02:30:28.438Z,987.80
2023-04-02T02:31:28.465Z,987.87
2023-04-02T02:32:28.411Z,987.87
2023-04-02T02:33:28.401Z,987.93
2023-04-02T02:34:28.376Z,987.93
2023-04-02T02:35:28.393Z,987.95
2023-04-02T02:36:28.374Z,987.96
2023-04-02T02:37:28.364Z,987.96
2023-04-02T02:38:28.355Z,987.98
2023-04-02T02:39:28.350Z,988.06
2023-04-02T02:40:28.375Z,988.05
2023-04-02T02:41:29.334Z,988.01
2023-04-02T02:42:28.337Z,988.11
2023-04-02T02:43:28.325Z,988.08
2023-04-02T02:44:28.313Z,988.16
2023-04-02T02:45:28.317Z,988.16
2023-04-02T02:46:28.338Z,988.14
2023-04-02T02:47:28.435Z,988.13
2023-04-02T02:48:28.283Z,988.18
2023-04-02T02:49:28.276Z,988.26
2023-04-02T02:50:28.262Z,988.20
2023-04-02T02:51:28.299Z,988.23
2023-04-02T02:52:28.273Z,988.27
2023-04-02T02:53:28.258Z,988.32
2023-04-02T02:54:28.247Z,988.32
2023-04-02T02:55:28.235Z,988.33
2023-04-02T02:56:28.229Z,988.35
2023-04-02T02:57:28.320Z,988.44
2023-04-02T02:58:28.223Z,988.44
2023-04-02T02:59:28.220Z,988.47
2023-04-02T03:00:28.204Z,988.46
2023-04-02T03:01:28.217Z,988.47
2023-04-02T03:02:28.249Z,988.45
2023-04-02T03:03:29.286Z,988.52
2023-04-02T03:04:28.205Z,988.59
2023-04-02T03:05:28.162Z,988.60
2023-04-02T03:06:28.169Z,988.60
2023-04-02T03:07:28.156Z,988.63
2023-04-02T03:08:28.143Z,988.62
2023-04-02T03:09:28.146Z,988.68
2023-04-02T03:10:28.135Z,988.67
2023-04-02T03:11:28.133Z,988.70
2023-04-02T03:12:28.112Z,988.71
2023-04-02T03:13:28.107Z,988.75
2023-04-02T03:14:28.114Z,988.68
2023-04-02T03:15:28.145Z,988.73
2023-04-02T03:16:28.081Z,988.72
2023-04-02T03:17:28.109Z,988.74
2023-04-02T03:18:28.083Z,988.77
2023-04-02T03:19:28.104Z,988.76
2023-04-02T03:20:28.062Z,988.80
2023-04-02T03:21:28.055Z,988.82
2023-04-02T03:22:28.037Z,988.89
2023-04-02T03:23:28.061Z,988.90
2023-04-02T03:24:28.040Z,988.95
2023-04-02T03:25:28.049Z,989.01
2023-04-02T03:26:28.034Z,989.00
2023-04-02T03:27:28.014Z,988.99
2023-04-02T03:28:28.011Z,988.98
2023-04-02T03:29:27.988Z,989.08
2023-04-02T03:30:27.990Z,989.08
2023-04-02T03:31:28.045Z,989.17
2023-04-02T03:32:27.994Z,989.09
2023-04-02T03:33:27.977Z,989.12
2023-04-02T03:34:27.979Z,989.13
2023-04-02T03:35:27.961Z,989.24
2023-04-02T03:36:27.969Z,989.20
2023-04-02T03:37:27.949Z,989.24
2023-04-02T03:38:27.946Z,989.26
2023-04-02T03:39:27.923Z,989.27
2023-04-02T03:40:27.923Z,989.25
2023-04-02T03:41:27.926Z,989.29
2023-04-02T03:42:27.908Z,989.32
2023-04-02T03:43:27.901Z,989.31
2023-04-02T03:44:27.893Z,989.38
2023-04-02T03:45:27.890Z,989.44
2023-04-02T03:46:27.948Z,989.43
2023-04-02T03:47:27.925Z,989.54
2023-04-02T03:48:27.870Z,989.51
2023-04-02T03:49:27.869Z,989.54
2023-04-02T03:50:27.883Z,989.50
2023-04-02T03:51:27.847Z,989.54
2023-04-02T03:52:27.844Z,989.64
2023-04-02T03:53:27.849Z,989.57
2023-04-02T03:54:27.822Z,989.63
2023-04-02T03:55:27.845Z,989.65
2023-04-02T03:56:27.829Z,989.64
2023-04-02T03:57:27.856Z,989.64
2023-04-02T03:58:27.816Z,989.75
2023-04-02T03:59:27.841Z,989.69
2023-04-02T04:00:27.812Z,989.78
2023-04-02T04:01:27.789Z,989.73
2023-04-02T04:02:28.889Z,989.81
2023-04-02T04:03:28.766Z,989.84
2023-04-02T04:04:27.815Z,989.80
2023-04-02T04:05:27.748Z,989.85
2023-04-02T04:06:27.757Z,989.90
2023-04-02T04:07:27.736Z,989.85
2023-04-02T04:08:27.726Z,989.87
2023-04-02T04:09:27.721Z,989.96
2023-04-02T04:10:27.741Z,989.98
2023-04-02T04:11:27.749Z,989.93
2023-04-02T04:12:27.707Z,989.93
2023-04-02T04:13:27.696Z,990.03
2023-04-02T04:14:27.711Z,989.98
2023-04-02T04:15:27.695Z,990.02
2023-04-02T04:16:28.707Z,990.00
2023-04-02T04:17:27.692Z,990.02
2023-04-02T04:18:27.660Z,990.06
2023-04-02T04:19:27.734Z,990.11
2023-04-02T04:20:27.654Z,990.08
2023-04-02T04:21:27.633Z,990.14
2023-04-02T04:22:27.645Z,990.17
2023-04-02T04:23:27.624Z,990.20
2023-04-02T04:24:27.622Z,990.22
2023-04-02T04:25:27.629Z,990.23
2023-04-02T04:26:27.615Z,990.23
2023-04-02T04:27:27.597Z,990.31
2023-04-02T04:28:27.648Z,990.31
2023-04-02T04:29:27.587Z,990.31
2023-04-02T04:30:27.592Z,990.37
2023-04-02T04:31:27.586Z,990.34
2023-04-02T04:32:27.947Z,990.37
2023-04-02T04:33:27.597Z,990.38
2023-04-02T04:34:27.555Z,990.38
2023-04-02T04:35:27.621Z,990.39
2023-04-02T04:36:27.546Z,990.47
2023-04-02T04:37:27.527Z,990.48
2023-04-02T04:38:27.593Z,990.49
2023-04-02T04:39:27.521Z,990.55
2023-04-02T04:40:27.525Z,990.53
2023-04-02T04:41:27.507Z,990.56
2023-04-02T04:42:27.516Z,990.55
2023-04-02T04:43:27.518Z,990.57
2023-04-02T04:44:27.514Z,990.61
2023-04-02T04:45:27.482Z,990.63
2023-04-02T04:46:27.554Z,990.62
2023-04-02T04:47:27.522Z,990.67
2023-04-02T04:48:27.478Z,990.66
2023-04-02T04:49:27.487Z,990.73
2023-04-02T04:50:27.457Z,990.72
2023-04-02T04:51:27.453Z,990.76
2023-04-02T04:52:27.436Z,990.73
2023-04-02T04:53:27.434Z,990.85
2023-04-02T04:54:27.440Z,990.88
2023-04-02T04:55:27.428Z,990.89
2023-04-02T04:56:27.414Z,990.92
2023-04-02T04:57:27.582Z,990.91
2023-04-02T04:58:27.403Z,990.89
2023-04-02T04:59:27.425Z,990.93
2023-04-02T05:00:27.397Z,990.97
2023-04-02T05:01:27.489Z,991.01
2023-04-02T05:02:27.395Z,991.04
2023-04-02T05:03:27.373Z,991.05
2023-04-02T05:04:27.420Z,991.06
2023-04-02T05:05:27.371Z,991.03
2023-04-02T05:06:27.365Z,991.11
2023-04-02T05:07:27.355Z,991.14
2023-04-02T05:08:27.362Z,991.14
2023-04-02T05:09:28.332Z,991.13
2023-04-02T05:10:27.391Z,991.14
2023-04-02T05:11:27.416Z,991.14
2023-04-02T05:12:27.400Z,991.20
2023-04-02T05:13:27.312Z,991.18
2023-04-02T05:14:27.294Z,991.21
2023-04-02T05:15:27.302Z,991.29
2023-04-02T05:16:27.412Z,991.26
2023-04-02T05:17:27.332Z,991.24
2023-04-02T05:18:27.263Z,991.30
2023-04-02T05:19:27.264Z,991.33
2023-04-02T05:20:27.262Z,991.30
2023-04-02T05:21:27.258Z,991.38
2023-04-02T05:22:27.251Z,991.37
2023-04-02T05:23:27.250Z,991.44
2023-04-02T05:24:27.224Z,991.52
2023-04-02T05:25:27.231Z,991.46
2023-04-02T05:26:27.232Z,991.57
2023-04-02T05:27:27.227Z,991.50
2023-04-02T05:28:27.204Z,991.66
2023-04-02T05:29:27.201Z,991.63
2023-04-02T05:30:27.194Z,991.65
2023-04-02T05:31:27.255Z,991.63
2023-04-02T05:32:27.231Z,991.72
2023-04-02T05:33:27.207Z,991.69
2023-04-02T05:34:27.219Z,991.70
2023-04-02T05:35:27.192Z,991.76
2023-04-02T05:36:27.193Z,991.71
2023-04-02T05:37:27.162Z,991.76
2023-04-02T05:38:27.155Z,991.83
2023-04-02T05:39:27.142Z,991.86
2023-04-02T05:40:27.120Z,991.87
2023-04-02T05:41:27.162Z,991.88
2023-04-02T05:42:27.121Z,991.87
2023-04-02T05:43:27.132Z,991.96
2023-04-02T05:44:27.109Z,991.99
2023-04-02T05:45:27.106Z,991.98
2023-04-02T05:46:27.136Z,992.05
2023-04-02T05:47:27.105Z,992.09
2023-04-02T05:48:27.084Z,992.09
2023-04-02T05:49:27.068Z,992.03
2023-04-02T05:50:27.082Z,992.07
2023-04-02T05:51:27.070Z,992.08
2023-04-02T05:52:27.057Z,992.08
2023-04-02T05:53:27.086Z,992.12
2023-04-02T05:54:27.039Z,992.07
2023-04-02T05:55:27.031Z,992.11
2023-04-02T05:56:27.024Z,992.16
2023-04-02T05:57:39.599Z,992.14
2023-04-02T05:58:35.365Z,992.18
2023-04-02T05:59:29.018Z,992.25
2023-04-02T06:00:27.002Z,992.18
2023-04-02T06:01:27.001Z,992.30
2023-04-02T06:02:27.125Z,992.31
2023-04-02T06:03:27.141Z,992.28
2023-04-02T06:04:26.990Z,992.26
2023-04-02T06:05:26.997Z,992.33
2023-04-02T06:06:26.967Z,992.43
2023-04-02T06:07:26.960Z,992.45
2023-04-02T06:08:26.957Z,992.40
2023-04-02T06:09:26.942Z,992.44
2023-04-02T06:10:26.967Z,992.51
2023-04-02T06:11:26.936Z,992.47
2023-04-02T06:12:26.919Z,992.54
2023-04-02T06:13:26.918Z,992.59
2023-04-02T06:14:26.905Z,992.59
2023-04-02T06:15:26.914Z,992.62
2023-04-02T06:16:26.940Z,992.67
2023-04-02T06:17:26.908Z,992.66
2023-04-02T06:18:26.876Z,992.69
2023-04-02T06:19:26.871Z,992.74
2023-04-02T06:20:26.866Z,992.73
2023-04-02T06:21:26.887Z,992.81
2023-04-02T06:22:26.847Z,992.77
2023-04-02T06:23:26.914Z,992.79
2023-04-02T06:24:26.852Z,992.82
2023-04-02T06:25:26.825Z,992.88
2023-04-02T06:26:26.842Z,992.87
2023-04-02T06:27:26.821Z,992.90
2023-04-02T06:28:26.862Z,992.91
2023-04-02T06:29:26.814Z,992.96
2023-04-02T06:30:26.824Z,992.97
2023-04-02T06:31:26.813Z,992.92
2023-04-02T06:32:26.860Z,993.00
2023-04-02T06:33:26.791Z,993.07
2023-04-02T06:34:26.771Z,993.06
2023-04-02T06:35:26.791Z,993.16
2023-04-02T06:36:26.768Z,993.22
2023-04-02T06:37:26.818Z,993.23
2023-04-02T06:38:26.773Z,993.26
2023-04-02T06:39:26.744Z,993.26
2023-04-02T06:40:26.762Z,993.25
2023-04-02T06:41:26.730Z,993.21
2023-04-02T06:42:26.739Z,993.31
2023-04-02T06:43:26.723Z,993.31
2023-04-02T06:44:26.726Z,993.34
2023-04-02T06:45:26.749Z,993.34
2023-04-02T06:46:26.746Z,993.31
2023-04-02T06:47:26.732Z,993.29
2023-04-02T06:48:26.697Z,993.33
2023-04-02T06:49:26.694Z,993.35
2023-04-02T06:50:26.868Z,993.35
2023-04-02T06:51:26.689Z,993.40
2023-04-02T06:52:26.666Z,993.39
2023-04-02T06:53:26.661Z,993.36
2023-04-02T06:54:26.658Z,993.44
2023-04-02T06:55:26.682Z,993.44
2023-04-02T06:56:26.652Z,993.48
2023-04-02T06:57:26.679Z,993.53
2023-04-02T06:58:26.621Z,993.54
2023-04-02T06:59:26.706Z,993.62
2023-04-02T07:00:26.658Z,993.61
2023-04-02T07:01:26.644Z,993.64
2023-04-02T07:02:26.663Z,993.74
2023-04-02T07:03:26.597Z,993.71
2023-04-02T07:04:26.601Z,993.74
2023-04-02T07:05:26.584Z,993.74
2023-04-02T07:06:26.578Z,993.76
2023-04-02T07:07:26.579Z,993.88
2023-04-02T07:08:26.563Z,993.84
2023-04-02T07:09:26.549Z,993.93
2023-04-02T07:10:26.538Z,993.90
2023-04-02T07:11:26.540Z,993.83
2023-04-02T07:12:26.577Z,993.87
2023-04-02T07:13:26.532Z,993.91
2023-04-02T07:14:26.540Z,993.88
2023-04-02T07:15:26.514Z,993.88
2023-04-02T07:16:26.603Z,993.92
2023-04-02T07:17:26.528Z,993.90
2023-04-02T07:18:26.501Z,994.01
2023-04-02T07:19:26.502Z,994.01
2023-04-02T07:20:26.481Z,994.02
2023-04-02T07:21:26.479Z,994.01
2023-04-02T07:22:26.472Z,994.06
2023-04-02T07:23:26.479Z,994.10
2023-04-02T07:24:26.476Z,994.07
2023-04-02T07:25:26.435Z,994.18
2023-04-02T07:26:26.443Z,994.14
2023-04-02T07:27:26.438Z,994.18
2023-04-02T07:28:26.455Z,994.22
2023-04-02T07:29:26.422Z,994.22
2023-04-02T07:30:26.427Z,994.19
2023-04-02T07:31:26.448Z,994.25
2023-04-02T07:32:26.427Z,994.24
2023-04-02T07:33:26.396Z,994.25
2023-04-02T07:34:26.420Z,994.30
2023-04-02T07:35:26.387Z,994.28
2023-04-02T07:36:26.384Z,994.30
2023-04-02T07:37:26.372Z,994.34
2023-04-02T07:38:26.364Z,994.34
2023-04-02T07:39:26.371Z,994.37
2023-04-02T07:40:26.347Z,994.39
2023-04-02T07:41:26.339Z,994.40
2023-04-02T07:42:26.341Z,994.46
2023-04-02T07:43:26.323Z,994.50
2023-04-02T07:44:26.320Z,994.49
2023-04-02T07:45:26.347Z,994.49
2023-04-02T07:46:26.345Z,994.57
2023-04-02T07:47:26.328Z,994.57
2023-04-02T07:48:26.300Z,994.54
2023-04-02T07:49:26.301Z,994.66
2023-04-02T07:50:26.329Z,994.64
2023-04-02T07:51:26.278Z,994.63
2023-04-02T07:52:26.305Z,994.67
2023-04-02T07:53:26.269Z,994.64
2023-04-02T07:54:26.269Z,994.69
2023-04-02T07:55:26.266Z,994.75
2023-04-02T07:56:26.258Z,994.73
2023-04-02T07:57:26.262Z,994.84
2023-04-02T07:58:26.227Z,994.80
2023-04-02T07:59:26.245Z,994.85
2023-04-02T08:00:26.218Z,994.88
2023-04-02T08:01:26.254Z,994.94
2023-04-02T08:02:26.280Z,994.89
2023-04-02T08:03:26.282Z,994.91
2023-04-02T08:04:26.189Z,994.99
2023-04-02T08:05:26.208Z,995.00
2023-04-02T08:06:26.178Z,995.01
2023-04-02T08:07:26.165Z,995.05
2023-04-02T08:08:26.167Z,995.00
2023-04-02T08:09:26.157Z,995.05
2023-04-02T08:10:26.165Z,995.11
2023-04-02T08:11:26.201Z,995.13
2023-04-02T08:12:26.183Z,995.12
2023-04-02T08:13:26.146Z,995.09
2023-04-02T08:14:26.122Z,995.15
2023-04-02T08:15:26.132Z,995.21
2023-04-02T08:16:26.164Z,995.24
2023-04-02T08:17:26.174Z,995.24
2023-04-02T08:18:26.096Z,995.29
2023-04-02T08:19:26.100Z,995.26
2023-04-02T08:20:26.100Z,995.31
2023-04-02T08:21:26.163Z,995.32
2023-04-02T08:22:26.068Z,995.30
2023-04-02T08:23:26.096Z,995.31
2023-04-02T08:24:26.065Z,995.42
2023-04-02T08:25:26.072Z,995.37
2023-04-02T08:26:26.052Z,995.40
2023-04-02T08:27:26.040Z,995.43
2023-04-02T08:28:26.050Z,995.44
2023-04-02T08:29:26.035Z,995.48
2023-04-02T08:30:26.024Z,995.52
2023-04-02T08:31:26.068Z,995.51
2023-04-02T08:32:26.013Z,995.48
2023-04-02T08:33:26.037Z,995.51
2023-04-02T08:34:26.005Z,995.57
2023-04-02T08:35:26.048Z,995.57
2023-04-02T08:36:26.016Z,995.59
2023-04-02T08:37:25.980Z,995.58
2023-04-02T08:38:26.031Z,995.63
2023-04-02T08:39:25.962Z,995.65
2023-04-02T08:40:25.971Z,995.70
2023-04-02T08:41:25.962Z,995.63
2023-04-02T08:42:25.981Z,995.64
2023-04-02T08:43:25.949Z,995.72
2023-04-02T08:44:25.938Z,995.75
2023-04-02T08:45:25.936Z,995.71
2023-04-02T08:46:25.967Z,995.73
2023-04-02T08:47:25.991Z,995.76
2023-04-02T08:48:25.914Z,995.79
2023-04-02T08:49:25.920Z,995.84
2023-04-02T08:50:25.890Z,995.86
2023-04-02T08:51:25.882Z,995.87
2023-04-02T08:52:25.883Z,995.92
2023-04-02T08:53:25.870Z,995.89
2023-04-02T08:54:25.885Z,995.92
2023-04-02T08:55:25.862Z,995.88
2023-04-02T08:56:25.853Z,995.92
2023-04-02T08:57:25.917Z,995.94
2023-04-02T08:58:25.845Z,995.97
2023-04-02T08:59:25.826Z,995.95
2023-04-02T09:00:25.822Z,996.01
2023-04-02T09:01:25.840Z,995.99
2023-04-02T09:02:25.831Z,996.02
2023-04-02T09:03:25.796Z,995.99
2023-04-02T09:04:25.805Z,996.05
2023-04-02T09:05:25.794Z,996.05
2023-04-02T09:06:25.794Z,996.10
2023-04-02T09:07:25.766Z,996.11
2023-04-02T09:08:25.761Z,996.08
2023-04-02T09:09:25.757Z,996.18
2023-04-02T09:10:25.753Z,996.20
2023-04-02T09:11:25.795Z,996.24
2023-04-02T09:12:25.753Z,996.26
2023-04-02T09:13:25.735Z,996.21
2023-04-02T09:14:25.718Z,996.30
2023-04-02T09:15:25.742Z,996.30
2023-04-02T09:16:25.765Z,996.33
2023-04-02T09:17:25.720Z,996.38
2023-04-02T09:18:25.759Z,996.42
2023-04-02T09:19:25.692Z,996.37
2023-04-02T09:20:25.714Z,996.42
2023-04-02T09:21:25.679Z,996.48
2023-04-02T09:22:25.696Z,996.48
2023-04-02T09:23:25.693Z,996.49
2023-04-02T09:24:25.673Z,996.49
2023-04-02T09:25:25.666Z,996.49
2023-04-02T09:26:25.644Z,996.52
2023-04-02T09:27:25.666Z,996.50
2023-04-02T09:28:25.673Z,996.57
2023-04-02T09:29:25.629Z,996.62
2023-04-02T09:30:25.620Z,996.56
2023-04-02T09:31:25.626Z,996.63
2023-04-02T09:32:25.627Z,996.63
2023-04-02T09:33:26.620Z,996.64
2023-04-02T09:34:25.732Z,996.67
2023-04-02T09:35:27.022Z,996.71
2023-04-02T09:36:26.604Z,996.67
2023-04-02T09:37:25.591Z,996.72
2023-04-02T09:38:25.588Z,996.67
2023-04-02T09:39:25.563Z,996.69
2023-04-02T09:40:25.580Z,996.69
2023-04-02T09:41:25.560Z,996.77
2023-04-02T09:42:25.531Z,996.71
2023-04-02T09:43:25.597Z,996.77
2023-04-02T09:44:25.642Z,996.83
2023-04-02T09:45:25.516Z,996.84
2023-04-02T09:46:25.543Z,996.82
2023-04-02T09:47:25.542Z,996.87
2023-04-02T09:48:25.505Z,996.88
2023-04-02T09:49:25.601Z,996.92
2023-04-02T09:50:25.479Z,996.84
2023-04-02T09:51:25.487Z,996.92
2023-04-02T09:52:25.474Z,996.96
2023-04-02T09:53:25.584Z,997.00
2023-04-02T09:54:25.578Z,996.92
2023-04-02T09:55:25.447Z,996.90
2023-04-02T09:56:25.452Z,996.98
2023-04-02T09:57:25.454Z,997.03
2023-04-02T09:58:25.428Z,997.04
2023-04-02T09:59:25.430Z,997.07
2023-04-02T10:00:41.663Z,997.01
2023-04-02T10:01:27.489Z,997.07
2023-04-02T10:02:25.501Z,997.05
2023-04-02T10:03:25.422Z,997.08
2023-04-02T10:04:26.454Z,997.02
2023-04-02T10:05:39.364Z,997.06
2023-04-02T10:06:27.363Z,997.13
2023-04-02T10:07:25.359Z,997.24
2023-04-02T10:08:25.374Z,997.14
2023-04-02T10:09:25.369Z,997.17
2023-04-02T10:10:26.370Z,997.23
2023-04-02T10:11:28.791Z,997.25
2023-04-02T10:12:27.339Z,997.23
2023-04-02T10:13:25.316Z,997.22
2023-04-02T10:14:25.307Z,997.31
2023-04-02T10:15:25.328Z,997.33
2023-04-02T10:16:26.966Z,997.38
2023-04-02T10:17:26.329Z,997.36
2023-04-02T10:18:25.288Z,997.33
2023-04-02T10:19:25.285Z,997.40
2023-04-02T10:20:25.289Z,997.45
2023-04-02T10:21:25.270Z,997.42
2023-04-02T10:22:25.274Z,997.49
2023-04-02T10:23:25.278Z,997.44
2023-04-02T10:24:25.238Z,997.47
2023-04-02T10:25:26.247Z,997.52
2023-04-02T10:26:25.238Z,997.48
2023-04-02T10:27:25.283Z,997.46
2023-04-02T10:28:25.236Z,997.43
2023-04-02T10:29:25.217Z,997.55
2023-04-02T10:30:25.204Z,997.57
2023-04-02T10:31:25.256Z,997.55
2023-04-02T10:32:26.239Z,997.63
2023-04-02T10:33:25.188Z,997.59
2023-04-02T10:34:25.181Z,997.59
2023-04-02T10:35:25.233Z,997.60
2023-04-02T10:36:25.167Z,997.56
2023-04-02T10:37:25.149Z,997.62
2023-04-02T10:38:25.195Z,997.65
2023-04-02T10:39:26.149Z,997.65
2023-04-02T10:40:25.126Z,997.68
2023-04-02T10:41:25.128Z,997.64
2023-04-02T10:42:25.117Z,997.65
2023-04-02T10:43:25.180Z,997.61
2023-04-02T10:44:25.128Z,997.65
2023-04-02T10:45:25.096Z,997.68
2023-04-02T10:46:25.591Z,997.64
2023-04-02T10:47:26.088Z,997.69
2023-04-02T10:48:25.159Z,997.68
2023-04-02T10:49:25.120Z,997.72
2023-04-02T10:50:25.070Z,997.71
2023-04-02T10:51:25.052Z,997.69
2023-04-02T10:52:25.063Z,997.61
2023-04-02T10:53:25.067Z,997.78
2023-04-02T10:54:25.046Z,997.73
2023-04-02T10:55:25.037Z,997.76
2023-04-02T10:56:25.026Z,997.74
2023-04-02T10:57:25.122Z,997.83
2023-04-02T10:58:25.035Z,997.85
2023-04-02T10:59:25.030Z,997.87
2023-04-02T11:00:25.001Z,997.82
2023-04-02T11:01:25.025Z,997.89
2023-04-02T11:02:25.070Z,997.87
2023-04-02T11:03:25.065Z,997.99
2023-04-02T11:04:24.987Z,997.86
2023-04-02T11:05:24.964Z,997.90
2023-04-02T11:06:24.968Z,997.91
2023-04-02T11:07:24.950Z,997.94
2023-04-02T11:08:24.950Z,997.99
2023-04-02T11:09:24.966Z,997.94
2023-04-02T11:10:24.933Z,998.05
2023-04-02T11:11:24.920Z,998.09
2023-04-02T11:12:24.926Z,998.01
2023-04-02T11:13:24.916Z,997.99
2023-04-02T11:14:24.924Z,998.07
2023-04-02T11:15:24.895Z,998.09
2023-04-02T11:16:24.960Z,998.11
2023-04-02T11:17:24.907Z,998.14
2023-04-02T11:18:24.906Z,998.13
2023-04-02T11:19:24.873Z,998.25
2023-04-02T11:20:24.889Z,998.22
2023-04-02T11:21:24.871Z,998.22
2023-04-02T11:22:24.856Z,998.27
2023-04-02T11:23:24.854Z,998.29
2023-04-02T11:24:24.838Z,998.32
2023-04-02T11:25:24.849Z,998.28
2023-04-02T11:26:24.850Z,998.29
2023-04-02T11:27:24.836Z,998.35
2023-04-02T11:28:25.161Z,998.41
2023-04-02T11:29:24.793Z,998.39
2023-04-02T11:30:24.803Z,998.40
2023-04-02T11:31:24.849Z,998.45
2023-04-02T11:32:24.806Z,998.47
2023-04-02T11:33:35.916Z,998.48
2023-04-02T11:34:26.789Z,998.44
2023-04-02T11:35:24.761Z,998.47
2023-04-02T11:36:24.810Z,998.51
2023-04-02T11:37:24.745Z,998.47
2023-04-02T11:38:24.757Z,998.56
2023-04-02T11:39:24.745Z,998.52
2023-04-02T11:40:24.762Z,998.57
2023-04-02T11:41:24.756Z,998.52
2023-04-02T11:42:24.716Z,998.56
2023-04-02T11:43:24.707Z,998.63
2023-04-02T11:44:24.709Z,998.55
2023-04-02T11:45:24.687Z,998.58
2023-04-02T11:46:24.742Z,998.57
2023-04-02T11:47:24.717Z,998.58
2023-04-02T11:48:24.683Z,998.64
2023-04-02T11:49:24.668Z,998.56
2023-04-02T11:50:24.671Z,998.64
2023-04-02T11:51:24.657Z,998.53
2023-04-02T11:52:24.731Z,998.58
2023-04-02T11:53:24.683Z,998.61
2023-04-02T11:54:24.632Z,998.57
2023-04-02T11:55:24.621Z,998.63
2023-04-02T11:56:24.614Z,998.62
2023-04-02T11:57:24.664Z,998.65
2023-04-02T11:58:24.597Z,998.63
2023-04-02T11:59:24.589Z,998.65
2023-04-02T12:00:24.610Z,998.64
2023-04-02T12:01:24.578Z,998.68
2023-04-02T12:02:24.673Z,998.70
2023-04-02T12:03:24.586Z,998.69
2023-04-02T12:04:24.564Z,998.74
2023-04-02T12:05:24.575Z,998.74
2023-04-02T12:06:24.537Z,998.73
2023-04-02T12:07:24.536Z,998.77
2023-04-02T12:08:24.534Z,998.79
2023-04-02T12:09:24.539Z,998.81
2023-04-02T12:10:24.535Z,998.83
2023-04-02T12:11:24.512Z,998.82
2023-04-02T12:12:24.509Z,998.83
2023-04-02T12:13:24.500Z,998.91
2023-04-02T12:14:24.524Z,998.89
2023-04-02T12:15:24.482Z,998.93
2023-04-02T12:16:24.548Z,998.95
2023-04-02T12:17:24.495Z,998.97
2023-04-02T12:18:24.526Z,999.06
2023-04-02T12:19:24.455Z,999.03
2023-04-02T12:20:24.447Z,999.06
2023-04-02T12:21:24.482Z,999.01
2023-04-02T12:22:24.439Z,999.04
2023-04-02T12:23:24.432Z,999.00
2023-04-02T12:24:24.428Z,999.03
2023-04-02T12:25:24.421Z,999.08
2023-04-02T12:26:24.464Z,999.06
2023-04-02T12:27:24.422Z,999.01
2023-04-02T12:28:24.435Z,999.06